CYNL

METAR CYNL 191000Z AUTO 08004KT 9SM CLR 12/10 A3008 RMK AO1 SLP175
METAR
LOCATION
CYNL
DATE - TIME
191000Z
WIND
080 TRUE @ 4 KNOTS
VISIBILITY
9SM
RUNWAY VISUAL RANGE
NOT REPORTED
WEATHER
CLOUDINESS
CLR
TEMP / DEWPOINT
12 ºC / 10 ºC
ALTIMETER
30.08 in. Hg
RECENT WEATHER
NOT REPORTED
WIND SHEAR
NOT REPORTED
REMARKS
RMK AO1 SLP175
SEA LEVEL PRESSURE: hPa

CYNL

METAR CYNL 190900Z AUTO 07006KT 9SM CLR 13/10 A3007 RMK AO1 SLP172
METAR
LOCATION
CYNL
DATE - TIME
190900Z
WIND
070 TRUE @ 6 KNOTS
VISIBILITY
9SM
RUNWAY VISUAL RANGE
NOT REPORTED
WEATHER
CLOUDINESS
CLR
TEMP / DEWPOINT
13 ºC / 10 ºC
ALTIMETER
30.07 in. Hg
RECENT WEATHER
NOT REPORTED
WIND SHEAR
NOT REPORTED
REMARKS
RMK AO1 SLP172
SEA LEVEL PRESSURE: hPa

CYNL

METAR CYNL 190800Z AUTO 08006KT 9SM CLR 14/11 A3007 RMK AO1 SLP166
METAR
LOCATION
CYNL
DATE - TIME
190800Z
WIND
080 TRUE @ 6 KNOTS
VISIBILITY
9SM
RUNWAY VISUAL RANGE
NOT REPORTED
WEATHER
CLOUDINESS
CLR
TEMP / DEWPOINT
14 ºC / 11 ºC
ALTIMETER
30.07 in. Hg
RECENT WEATHER
NOT REPORTED
WIND SHEAR
NOT REPORTED
REMARKS
RMK AO1 SLP166
SEA LEVEL PRESSURE: hPa

Your time UTC time
 
 
Weather data provided by AXYS Technologies Inc., www.axystechnologies.com
 
Station History